Time;durP1;ratioP1;P1;durP2;ratioP2;P2;SDS_P1;SDS_P2;PMS_P1;PMS_P2;Temp;Humidity;BMP_temperature;BMP_pressure;BME280_temperature;BME280_humidity;BME280_pressure;Samples;Min_cycle;Max_cycle;Signal;HPM_P1;HPM_P2
2021/04/17 00:08:50;;;;;;;10.10;5.82;;;;;;;5.16;73.62;101028.19;20768754;28;20388;-68
2021/04/17 00:18:51;;;;;;;12.07;6.03;;;;;;;5.20;73.41;101009.94;20744513;28;20081;-69
2021/04/17 00:28:52;;;;;;;9.20;5.60;;;;;;;5.19;73.94;101003.88;20736196;28;20042;-69
2021/04/17 00:38:54;;;;;;;8.98;5.30;;;;;;;5.15;74.14;101005.72;20774463;28;20096;-69
2021/04/17 00:48:55;;;;;;;8.80;5.20;;;;;;;5.21;73.77;100990.88;20819246;28;20474;-69
2021/04/17 00:58:56;;;;;;;9.10;4.78;;;;;;;5.07;75.32;100981.69;20795058;28;20409;-69
2021/04/17 01:09:12;;;;;;;9.02;5.15;;;;;;;5.05;76.28;100982.59;20736794;28;20457;-68
2021/04/17 01:19:22;;;;;;;8.63;4.60;;;;;;;4.96;75.09;100970.69;20736591;28;20449;-68
2021/04/17 01:29:24;;;;;;;9.15;4.65;;;;;;;4.89;75.88;100976.88;20744611;28;20045;-68
2021/04/17 01:39:26;;;;;;;8.20;4.80;;;;;;;4.73;76.76;100972.91;20750090;28;20046;-68
2021/04/17 01:49:28;;;;;;;9.15;5.05;;;;;;;4.61;78.32;100968.00;20749871;28;20486;-68
2021/04/17 01:59:34;;;;;;;9.13;5.00;;;;;;;4.25;79.41;100964.41;20748996;28;20053;-68
2021/04/17 02:09:35;;;;;;;;;;;;;;;3.84;81.68;100970.34;20748433;28;20049;-69
2021/04/17 02:19:45;;;;;;;10.50;5.53;;;;;;;3.69;82.72;100961.13;20748079;28;19972;-69
2021/04/17 02:29:52;;;;;;;8.93;5.65;;;;;;;3.57;83.92;100957.88;20746123;28;20549;-69
2021/04/17 02:39:53;;;;;;;10.48;5.43;;;;;;;3.31;85.32;100948.78;20814576;28;20088;-69
2021/04/17 02:49:54;;;;;;;8.55;4.60;;;;;;;3.11;85.44;100950.81;20827414;28;20049;-69
2021/04/17 02:59:54;;;;;;;8.50;4.93;;;;;;;3.01;85.73;100946.66;20800123;28;20697;-68
2021/04/17 03:09:55;;;;;;;12.23;6.03;;;;;;;2.81;86.86;100946.97;20726286;28;20052;-69
2021/04/17 03:19:56;;;;;;;10.40;5.68;;;;;;;2.72;86.78;100934.16;20743861;28;20042;-69
2021/04/17 03:29:57;;;;;;;10.35;5.70;;;;;;;2.69;86.96;100923.03;20741824;28;20522;-69
2021/04/17 03:39:59;;;;;;;13.63;6.47;;;;;;;2.68;87.54;100927.34;20741062;28;20057;-68
2021/04/17 03:50:00;;;;;;;10.50;6.63;;;;;;;2.47;87.91;100933.63;20741072;28;20050;-68
2021/04/17 04:00:02;;;;;;;12.25;6.75;;;;;;;2.41;88.69;100944.03;20740698;28;20046;-69
2021/04/17 04:10:05;;;;;;;10.32;6.18;;;;;;;2.31;90.18;100944.16;20721436;28;20046;-68
2021/04/17 04:20:07;;;;;;;12.00;5.88;;;;;;;2.10;90.02;100959.03;20739173;28;20054;-68
2021/04/17 04:30:10;;;;;;;12.52;6.45;;;;;;;2.04;91.33;100947.91;20740405;28;20049;-68
2021/04/17 04:40:12;;;;;;;10.55;6.82;;;;;;;1.93;91.27;100958.34;20733978;28;20042;-68
2021/04/17 04:50:14;;;;;;;15.45;8.65;;;;;;;1.84;90.19;100962.75;20736383;28;20114;-68
2021/04/17 05:00:15;;;;;;;13.10;7.32;;;;;;;1.93;91.46;100960.09;20740999;28;20045;-68
2021/04/17 05:10:16;;;;;;;13.43;7.72;;;;;;;2.19;90.08;100963.22;20753789;28;20046;-69
2021/04/17 05:20:17;;;;;;;11.60;7.72;;;;;;;2.36;88.41;100963.06;20755092;28;20053;-69
2021/04/17 05:30:19;;;;;;;11.60;7.30;;;;;;;2.54;88.68;100971.41;20749943;28;20050;-68
2021/04/17 05:40:20;;;;;;;13.25;7.90;;;;;;;2.75;88.28;100974.59;20751581;28;20045;-68
2021/04/17 05:50:21;;;;;;;11.98;7.30;;;;;;;3.09;87.00;100967.25;20749455;28;20125;-68
2021/04/17 06:00:23;;;;;;;13.95;8.25;;;;;;;3.45;85.04;100970.13;20749034;28;20046;-68
2021/04/17 06:10:24;;;;;;;16.55;9.75;;;;;;;3.97;83.04;100958.88;20746937;28;20052;-68
2021/04/17 06:20:25;;;;;;;17.00;9.43;;;;;;;4.37;78.91;100969.31;20747345;28;20470;-68
2021/04/17 06:30:28;;;;;;;20.17;10.75;;;;;;;4.79;76.98;100975.38;20763421;28;20053;-68
2021/04/17 06:40:33;;;;;;;23.30;8.87;;;;;;;5.37;75.60;100971.47;20771318;28;20089;-69
2021/04/17 06:50:35;;;;;;;17.08;9.70;;;;;;;5.58;73.24;100961.44;20715161;28;20486;-69
2021/04/17 07:00:36;;;;;;;13.30;8.43;;;;;;;5.86;73.30;100945.13;20722271;28;20041;-68
2021/04/17 07:10:38;;;;;;;17.05;9.60;;;;;;;6.35;72.87;100949.88;20717596;28;20053;-68
2021/04/17 07:20:39;;;;;;;16.55;10.48;;;;;;;6.31;69.89;100961.25;20733868;28;20446;-69
2021/04/17 07:30:43;;;;;;;13.38;8.80;;;;;;;6.31;67.88;100948.25;20723772;28;20052;-69
2021/04/17 07:40:54;;;;;;;14.77;8.45;;;;;;;6.32;67.45;100956.03;20740936;28;20093;-69
2021/04/17 07:50:57;;;;;;;14.82;7.78;;;;;;;6.56;66.69;100953.63;20738264;28;20052;-67
2021/04/17 08:00:58;;;;;;;14.10;7.47;;;;;;;6.63;65.35;100958.63;20717791;28;20049;-67
2021/04/17 08:11:00;;;;;;;13.15;8.00;;;;;;;6.94;65.04;100953.34;20702380;28;20046;-67
2021/04/17 08:21:01;;;;;;;13.70;8.27;;;;;;;7.11;64.02;100947.63;20724287;28;20422;-68
2021/04/17 08:31:21;;;;;;;14.35;8.18;;;;;;;7.63;63.16;100942.44;20742707;28;20493;-68
2021/04/17 08:41:42;;;;;;;15.93;8.48;;;;;;;7.95;61.28;100932.66;20730250;28;20053;-68
2021/04/17 08:51:43;;;;;;;14.68;7.80;;;;;;;8.68;58.75;100930.88;20735542;28;20108;-68
2021/04/17 09:01:44;;;;;;;11.80;6.85;;;;;;;8.59;56.48;100929.44;20726790;28;20046;-68
2021/04/17 09:11:48;;;;;;;11.70;7.00;;;;;;;8.65;55.18;100927.53;20728399;28;20073;-68
2021/04/17 09:21:49;;;;;;;15.10;6.97;;;;;;;9.28;54.10;100916.31;20733507;28;20042;-68
2021/04/17 09:31:51;;;;;;;12.27;7.68;;;;;;;9.47;53.61;100921.63;20732145;28;20046;-68
2021/04/17 09:41:55;;;;;;;15.07;7.57;;;;;;;9.89;54.52;100901.53;20731278;28;20109;-68
2021/04/17 09:51:56;;;;;;;13.07;6.75;;;;;;;9.81;52.77;100883.56;20740692;28;20056;-69
2021/04/17 10:02:00;;;;;;;11.45;6.25;;;;;;;10.29;49.33;100869.25;20745355;28;20104;-68
2021/04/17 10:12:06;;;;;;;10.68;6.13;;;;;;;10.54;46.99;100863.75;20725584;28;20088;-69
2021/04/17 10:22:11;;;;;;;9.77;5.53;;;;;;;10.71;45.37;100863.81;20737164;28;20383;-68
2021/04/17 10:32:20;;;;;;;7.70;3.50;;;;;;;11.10;39.22;100838.31;20745857;28;20422;-68
2021/04/17 10:42:22;;;;;;;7.55;4.18;;;;;;;11.31;41.25;100836.41;20729086;28;20052;-69
2021/04/17 10:52:32;;;;;;;7.25;4.13;;;;;;;11.83;39.56;100821.50;20736832;28;20453;-69
2021/04/17 11:02:35;;;;;;;10.70;4.95;;;;;;;10.78;42.44;100810.22;20734265;28;20628;-68
2021/04/17 11:12:38;;;;;;;9.00;4.43;;;;;;;10.76;43.08;100798.13;20745002;28;20486;-68
2021/04/17 11:22:44;;;;;;;8.50;3.80;;;;;;;11.45;40.46;100784.13;20751272;28;20090;-68
2021/04/17 11:32:45;;;;;;;6.13;3.22;;;;;;;11.83;39.48;100774.28;20757544;28;20050;-68
2021/04/17 11:42:46;;;;;;;6.28;3.55;;;;;;;11.97;38.34;100769.13;20747435;28;20121;-68
2021/04/17 11:52:47;;;;;;;7.90;3.20;;;;;;;11.79;36.18;100764.88;20732013;28;20054;-68
2021/04/17 12:02:48;;;;;;;6.45;3.65;;;;;;;12.22;34.53;100749.41;20732593;28;20053;-68
2021/04/17 12:12:49;;;;;;;6.28;2.55;;;;;;;12.40;33.81;100737.88;20739558;28;20057;-68
2021/04/17 12:22:51;;;;;;;5.45;2.55;;;;;;;12.27;31.96;100726.38;20736536;28;20058;-67
2021/04/17 12:32:52;;;;;;;6.25;3.55;;;;;;;12.14;36.35;100726.22;20730217;28;20053;-68
2021/04/17 12:42:53;;;;;;;7.55;2.60;;;;;;;12.65;34.46;100722.41;20729073;28;20549;-68
2021/04/17 12:52:54;;;;;;;8.27;3.80;;;;;;;12.67;35.17;100714.47;20731775;28;20089;-68
2021/04/17 13:02:56;;;;;;;8.23;3.33;;;;;;;12.02;36.61;100715.56;20723497;28;20132;-68
2021/04/17 13:12:58;;;;;;;6.55;3.05;;;;;;;12.45;35.06;100709.59;20723730;28;20100;-67
2021/04/17 13:22:59;;;;;;;9.73;3.60;;;;;;;12.33;35.39;100698.03;20740016;28;20100;-70
2021/04/17 13:33:00;;;;;;;8.38;3.35;;;;;;;12.67;34.30;100688.19;20749802;28;20046;-69
2021/04/17 13:43:05;;;;;;;8.10;3.38;;;;;;;12.49;34.81;100687.50;20752014;28;20047;-69
2021/04/17 13:53:06;;;;;;;9.10;3.03;;;;;;;12.40;35.70;100669.63;20744301;28;20100;-69
2021/04/17 14:03:07;;;;;;;10.75;3.50;;;;;;;12.24;35.94;100661.78;20749174;28;20112;-69
2021/04/17 14:13:09;;;;;;;9.88;3.17;;;;;;;12.11;35.69;100662.56;20748423;28;20097;-69
2021/04/17 14:23:11;;;;;;;9.38;2.90;;;;;;;12.17;36.36;100652.59;20748830;28;20046;-68
2021/04/17 14:33:12;;;;;;;7.28;3.50;;;;;;;12.29;35.13;100654.50;20748420;28;20458;-70
2021/04/17 14:43:13;;;;;;;7.68;3.30;;;;;;;12.55;35.18;100637.22;20747834;28;20391;-70
2021/04/17 14:53:15;;;;;;;9.68;3.45;;;;;;;12.47;35.68;100639.47;20745676;28;20093;-70
2021/04/17 15:03:31;;;;;;;8.40;3.45;;;;;;;12.08;36.39;100631.28;20743995;28;20038;-71
2021/04/17 15:13:33;;;;;;;10.65;3.45;;;;;;;12.46;37.55;100627.28;20745335;28;20096;-70
2021/04/17 15:23:34;;;;;;;8.45;3.38;;;;;;;12.05;38.55;100623.56;20741941;28;20104;-69
2021/04/17 15:33:42;;;;;;;9.40;3.15;;;;;;;11.81;39.53;100626.63;20740809;28;20100;-69
2021/04/17 15:43:45;;;;;;;7.25;3.13;;;;;;;11.93;41.01;100633.84;20742091;28;20128;-69
2021/04/17 15:53:47;;;;;;;7.85;3.20;;;;;;;11.40;41.10;100639.34;20740419;28;20425;-69
2021/04/17 16:24:15;;;;;;;8.68;3.30;;;;;;;10.56;42.36;100663.00;20736863;28;20056;-70
2021/04/17 16:34:17;;;;;;;8.80;3.25;;;;;;;10.36;43.30;100658.75;20735541;28;20057;-69
2021/04/17 16:44:18;;;;;;;7.53;2.83;;;;;;;10.11;43.34;100669.50;20760926;28;20081;-70
2021/04/17 16:54:19;;;;;;;7.38;3.00;;;;;;;10.19;42.81;100670.03;20753253;28;20120;-69
2021/04/17 17:04:20;;;;;;;6.90;2.38;;;;;;;10.11;42.04;100674.72;20738397;28;20058;-70
2021/04/17 17:14:23;;;;;;;8.93;3.13;;;;;;;9.94;42.17;100674.69;20747337;28;20218;-70
2021/04/17 17:24:24;;;;;;;7.53;3.30;;;;;;;9.84;42.86;100687.34;20748454;28;20052;-69
2021/04/17 17:34:25;;;;;;;8.10;2.65;;;;;;;9.79;44.26;100697.19;20735079;28;20046;-70
2021/04/17 17:44:26;;;;;;;7.47;2.83;;;;;;;9.71;45.61;100687.97;20745523;28;20046;-69
2021/04/17 17:54:28;;;;;;;11.23;3.75;;;;;;;9.55;46.55;100694.84;20746398;28;20092;-71
2021/04/17 18:04:30;;;;;;;8.52;3.58;;;;;;;9.38;47.09;100709.50;20739405;28;20042;-71
2021/04/17 18:14:34;;;;;;;9.90;4.38;;;;;;;9.38;47.87;100719.97;20742721;28;20465;-68
2021/04/17 18:24:35;;;;;;;9.93;3.35;;;;;;;9.23;49.09;100733.69;20741858;28;20056;-68
2021/04/17 18:34:37;;;;;;;8.55;3.92;;;;;;;9.25;49.63;100731.00;20741305;28;20433;-68
2021/04/17 18:44:39;;;;;;;9.70;3.90;;;;;;;9.03;50.62;100744.13;20741627;28;20046;-68
2021/04/17 18:54:41;;;;;;;10.10;3.75;;;;;;;9.07;50.80;100745.69;20737066;28;20054;-68
2021/04/17 19:04:42;;;;;;;10.88;4.07;;;;;;;8.94;51.48;100757.56;20739956;28;20049;-68
2021/04/17 19:14:43;;;;;;;10.35;3.92;;;;;;;8.88;53.37;100769.13;20739964;28;20109;-68
2021/04/17 19:24:44;;;;;;;8.30;3.45;;;;;;;8.88;55.83;100778.72;20739880;28;20418;-69
2021/04/17 19:34:45;;;;;;;8.27;3.22;;;;;;;8.54;59.99;100780.06;20738286;28;20088;-71
2021/04/17 19:44:47;;;;;;;8.63;3.25;;;;;;;8.29;61.05;100792.34;20735205;28;20498;-71
2021/04/17 19:54:48;;;;;;;12.30;5.25;;;;;;;8.18;64.93;100800.56;20727272;28;20049;-71
2021/04/17 20:04:49;;;;;;;11.70;4.70;;;;;;;8.10;64.24;100807.84;20733483;28;20054;-70
2021/04/17 20:14:50;;;;;;;12.00;3.88;;;;;;;7.69;69.78;100817.16;20736276;28;20097;-71
2021/04/17 20:24:53;;;;;;;13.65;4.93;;;;;;;7.54;72.71;100828.13;20734977;28;20042;-71
2021/04/17 20:34:54;;;;;;;10.68;4.40;;;;;;;7.19;80.65;100831.09;20724029;28;20046;-70
2021/04/17 20:44:55;;;;;;;12.25;5.47;;;;;;;7.05;78.28;100830.69;20731426;28;20049;-71
2021/04/17 20:54:56;;;;;;;12.20;4.68;;;;;;;7.01;80.43;100822.13;20735475;28;20042;-71
2021/04/17 21:04:56;;;;;;;8.32;3.85;;;;;;;7.07;84.36;100821.06;20731221;28;20049;-70
2021/04/17 21:14:57;;;;;;;11.77;5.25;;;;;;;6.96;82.07;100818.00;20721774;28;20045;-71
2021/04/17 21:24:58;;;;;;;13.60;5.70;;;;;;;6.88;81.20;100819.09;20730183;28;20529;-71
2021/04/17 21:35:00;;;;;;;11.68;6.03;;;;;;;6.85;81.99;100820.94;20732561;28;20033;-71
2021/04/17 21:45:02;;;;;;;10.68;5.15;;;;;;;6.79;85.33;100821.13;20736987;28;20056;-71
2021/04/17 21:55:05;;;;;;;10.82;5.43;;;;;;;6.64;85.86;100814.66;20737633;28;20053;-71
2021/04/17 22:05:06;;;;;;;12.10;6.00;;;;;;;6.53;87.89;100808.94;20739318;28;20065;-71
2021/04/17 22:15:08;;;;;;;11.45;5.20;;;;;;;6.38;87.26;100794.66;20737984;28;20097;-71
2021/04/17 22:25:10;;;;;;;13.30;6.60;;;;;;;6.23;87.25;100813.34;20738515;28;20089;-70
2021/04/17 22:35:12;;;;;;;12.40;4.70;;;;;;;6.26;85.93;100817.56;20737534;28;20560;-72
2021/04/17 22:45:13;;;;;;;10.82;5.13;;;;;;;6.33;85.66;100811.31;20742466;28;20042;-71
2021/04/17 22:55:15;;;;;;;10.65;5.30;;;;;;;6.43;87.55;100804.94;20736209;28;20042;-71
2021/04/17 23:05:17;;;;;;;10.48;5.72;;;;;;;6.47;86.95;100766.66;20734042;28;20108;-71
2021/04/17 23:15:18;;;;;;;9.20;5.15;;;;;;;6.43;88.62;100763.31;20759215;28;20064;-71
2021/04/17 23:25:19;;;;;;;10.88;5.00;;;;;;;6.36;87.57;100764.41;20764163;28;20102;-71
2021/04/17 23:35:20;;;;;;;10.00;5.35;;;;;;;6.27;87.30;100759.50;20730888;28;20046;-70
2021/04/17 23:45:22;;;;;;;11.85;5.10;;;;;;;6.11;88.50;100758.25;20732498;28;20056;-71
2021/04/17 23:55:26;;;;;;;11.98;6.50;;;;;;;6.05;87.79;100755.84;20732442;28;20042;-70
